Time;durP1;ratioP1;P1;durP2;ratioP2;P2;SDS_P1;SDS_P2;PMS_P1;PMS_P2;Temp;Humidity;BMP_temperature;BMP_pressure;BME280_temperature;BME280_humidity;BME280_pressure;Samples;Min_cycle;Max_cycle;Signal;HPM_P1;HPM_P2
2021/09/15 00:01:43;;;;;;;;;27.33;25.00;;;;;15.07;90.00;99805.72;6757789;19;3591799;-53
2021/09/15 00:04:12;;;;;;;;;31.67;30.00;;;;;15.07;90.43;99794.91;6749247;19;3579315;-53
2021/09/15 00:06:41;;;;;;;;;29.00;26.00;;;;;14.97;91.22;99796.63;6790449;19;3595973;-53
2021/09/15 00:09:09;;;;;;;;;31.33;29.00;;;;;15.19;90.19;99794.91;6754814;19;3587679;-55
2021/09/15 00:11:37;;;;;;;;;29.67;28.33;;;;;15.07;91.08;99802.19;6754861;19;3604343;-54
2021/09/15 00:14:06;;;;;;;;;31.00;29.00;;;;;14.92;91.28;99796.13;6752600;19;3599138;-56
2021/09/15 00:16:35;;;;;;;;;31.33;28.67;;;;;15.02;91.06;99797.13;6749949;19;3609589;-56
2021/09/15 00:19:04;;;;;;;;;30.67;27.67;;;;;14.69;92.56;99793.38;6786778;19;3579295;-55
2021/09/15 00:21:33;;;;;;;;;30.67;28.67;;;;;14.69;92.81;99797.88;6753760;19;3595991;-56
2021/09/15 00:24:02;;;;;;;;;34.33;27.67;;;;;14.78;92.46;99790.94;6749429;19;2865855;-55
2021/09/15 00:26:32;;;;;;;;;28.67;26.00;;;;;14.80;92.33;99795.25;6784069;19;2857526;-54
2021/09/15 00:29:01;;;;;;;;;28.33;24.67;;;;;15.01;91.30;99798.09;6777386;19;2852264;-54
2021/09/15 00:31:29;;;;;;;;;31.33;28.00;;;;;15.15;90.56;99799.72;6789550;19;3576214;-54
2021/09/15 00:33:58;;;;;;;;;33.33;28.33;;;;;15.07;90.71;99794.91;6752570;19;3603300;-54
2021/09/15 00:36:26;;;;;;;;;31.33;26.33;;;;;14.98;91.35;99798.34;6753732;19;3591842;-55
2021/09/15 00:38:55;;;;;;;;;27.00;27.00;;;;;14.76;92.71;99795.59;6753748;19;3595976;-54
2021/09/15 00:41:23;;;;;;;;;31.67;30.00;;;;;14.82;92.11;99798.66;6752620;19;3566808;-54
2021/09/15 00:44:02;;;;;;;;;28.33;27.00;;;;;14.78;92.35;99790.94;6749359;19;3599098;-56
2021/09/15 00:46:31;;;;;;;;;32.50;29.50;;;;;14.77;92.15;99795.47;6778362;19;2841824;-54
2021/09/15 00:49:00;;;;;;;;;32.67;28.67;;;;;14.52;93.57;99798.31;6753545;19;3589742;-55
2021/09/15 00:51:39;;;;;;;;;30.67;29.67;;;;;15.01;91.98;99799.94;6748707;19;2845010;-56
2021/09/15 00:54:11;;;;;;;;;30.67;26.33;;;;;14.80;92.01;99799.78;6779006;19;2858576;-56
2021/09/15 00:56:40;;;;;;;;;34.33;28.67;;;;;14.60;93.22;99798.59;6787109;19;3598094;-54
2021/09/15 00:59:09;;;;;;;;;36.00;31.00;;;;;14.77;92.98;99802.69;6755306;19;3588748;-54
2021/09/15 01:01:37;;;;;;;;;36.00;32.00;;;;;14.71;93.02;99807.59;6754120;19;3598086;-55
2021/09/15 01:04:07;;;;;;;;;36.00;32.67;;;;;14.71;92.83;99813.00;6750194;19;2848165;-54
2021/09/15 01:06:36;;;;;;;;;31.00;29.33;;;;;14.72;92.56;99811.19;6783558;19;3599105;-55
2021/09/15 01:09:06;;;;;;;;;31.33;27.33;;;;;14.43;94.12;99805.28;6746107;19;3604298;-55
2021/09/15 01:11:37;;;;;;;;;32.33;30.00;;;;;14.27;94.35;99803.72;6786498;19;3564711;-55
2021/09/15 01:14:07;;;;;;;;;31.67;29.33;;;;;14.90;91.88;99801.66;6743544;19;2838779;-56
2021/09/15 01:17:08;;;;;;;;;30.67;27.67;;;;;14.58;93.02;99808.66;6785168;19;3604305;-55
2021/09/15 01:19:36;;;;;;;;;30.00;30.00;;;;;14.39;94.17;99798.38;6750470;19;3571002;-54
2021/09/15 01:22:05;;;;;;;;;34.00;29.67;;;;;14.48;94.50;99794.94;6750899;19;3586598;-56
2021/09/15 01:24:34;;;;;;;;;34.67;30.67;;;;;14.97;92.07;99802.03;6750235;19;3594939;-54
2021/09/15 01:27:02;;;;;;;;;41.33;33.67;;;;;14.60;93.50;99804.88;6754101;19;3595976;-55
2021/09/15 01:29:34;;;;;;;;;33.33;30.00;;;;;14.59;93.00;99797.75;6751826;19;3587744;-55
2021/09/15 01:32:08;;;;;;;;;34.00;31.00;;;;;14.47;93.65;99801.34;6752477;19;3585549;-54
2021/09/15 01:34:49;;;;;;;;;31.00;30.00;;;;;14.57;93.66;99799.69;6742158;19;2840822;-54
2021/09/15 01:37:17;;;;;;;;;30.33;29.67;;;;;14.33;94.46;99804.25;6750125;19;3600171;-54
2021/09/15 01:39:46;;;;;;;;;28.33;26.67;;;;;14.37;94.44;99797.59;6751973;19;3587681;-52
2021/09/15 01:42:15;;;;;;;;;40.33;32.67;;;;;14.40;94.68;99791.97;6751842;19;3604302;-54
2021/09/15 01:44:46;;;;;;;;;36.00;30.33;;;;;14.14;95.97;99792.13;6753297;19;3590752;-53
2021/09/15 01:47:16;;;;;;;;;30.33;29.33;;;;;14.23;95.43;99791.41;6750790;19;3575224;-52
2021/09/15 01:49:46;;;;;;;;;35.67;28.67;;;;;14.36;95.42;99790.50;6751800;19;3605345;-55
2021/09/15 01:52:16;;;;;;;;;35.33;30.33;;;;;14.33;95.23;99790.72;6754017;19;3593890;-52
2021/09/15 01:54:46;;;;;;;;;30.00;30.00;;;;;14.61;93.92;99793.09;6748015;19;3562633;-55
2021/09/15 01:57:15;;;;;;;;;31.67;29.67;;;;;14.49;93.82;99786.75;6786790;19;3581389;-55
2021/09/15 01:59:44;;;;;;;;;34.33;31.00;;;;;14.28;94.85;99794.63;6749037;19;3581402;-53
2021/09/15 02:02:13;;;;;;;;;34.00;29.67;;;;;14.54;94.54;99790.97;6746130;19;2848139;-53
2021/09/15 02:04:42;;;;;;;;;36.67;30.33;;;;;14.57;93.33;99788.03;6785471;19;3595964;-54
2021/09/15 02:07:11;;;;;;;;;34.00;32.00;;;;;14.42;94.27;99779.22;6746450;19;3606393;-55
2021/09/15 02:09:41;;;;;;;;;26.33;24.00;;;;;14.36;94.77;99779.69;6780243;19;2852304;-54
2021/09/15 02:12:09;;;;;;;;;33.67;32.33;;;;;14.36;95.19;99769.75;6785744;19;3592868;-56
2021/09/15 02:14:38;;;;;;;;;33.00;31.00;;;;;14.51;94.55;99778.53;6745611;19;2837717;-52
2021/09/15 02:17:07;;;;;;;;;31.33;30.00;;;;;14.48;94.33;99774.22;6782748;19;3592883;-53
2021/09/15 02:19:35;;;;;;;;;33.67;30.67;;;;;14.59;93.99;99781.53;6750706;19;3588693;-54
2021/09/15 02:22:05;;;;;;;;;29.67;28.67;;;;;14.52;93.69;99773.97;6745959;19;3604305;-55
2021/09/15 02:24:33;;;;;;;;;31.33;30.00;;;;;14.47;94.14;99774.31;6785990;19;3573049;-56
2021/09/15 02:27:01;;;;;;;;;34.50;31.00;;;;;14.54;93.83;99774.75;6748401;19;3477234;-54
2021/09/15 02:29:31;;;;;;;;;35.67;30.00;;;;;14.43;93.91;99776.41;6778830;19;3602223;-53
2021/09/15 02:32:00;;;;;;;;;37.67;32.33;;;;;14.38;94.39;99772.34;6776989;19;2857533;-55
2021/09/15 02:34:28;;;;;;;;;30.33;29.67;;;;;14.42;94.23;99776.50;6786388;19;3575164;-54
2021/09/15 02:36:57;;;;;;;;;33.00;31.00;;;;;14.68;92.78;99783.50;6743555;19;2850204;-54
2021/09/15 02:39:26;;;;;;;;;36.33;33.00;;;;;14.42;93.21;99780.06;6785050;19;3594944;-54
2021/09/15 02:41:54;;;;;;;;;33.00;30.00;;;;;14.34;94.31;99781.63;6749924;19;3580361;-53
2021/09/15 02:44:23;;;;;;;;;32.67;30.67;;;;;14.24;94.56;99779.66;6746060;19;3591822;-53
2021/09/15 02:46:52;;;;;;;;;34.00;30.33;;;;;14.09;95.75;99772.69;6743488;19;2860653;-53
2021/09/15 02:49:21;;;;;;;;;36.33;31.67;;;;;14.29;94.90;99773.88;6781397;19;3598439;-53
2021/09/15 02:51:49;;;;;;;;;30.67;30.67;;;;;14.03;96.03;99778.53;6751991;19;3580382;-55
2021/09/15 02:54:18;;;;;;;;;35.33;31.67;;;;;13.84;96.68;99773.63;6739587;19;2849252;-54
2021/09/15 02:56:47;;;;;;;;;29.67;29.67;;;;;13.95;96.66;99778.25;6787234;19;3594014;-54
2021/09/15 02:59:15;;;;;;;;;37.33;33.33;;;;;14.08;96.09;99789.84;6748900;19;3609514;-53
2021/09/15 03:01:44;;;;;;;;;37.00;32.00;;;;;13.79;98.01;99782.06;6751356;19;3600131;-55
2021/09/15 03:04:12;;;;;;;;;35.33;32.33;;;;;14.07;97.13;99784.59;6749257;19;3568878;-52
2021/09/15 03:06:41;;;;;;;;;34.33;31.33;;;;;14.07;96.68;99788.13;6744175;19;2858535;-52
2021/09/15 03:09:10;;;;;;;;;36.00;33.33;;;;;13.98;97.23;99788.81;6783358;19;3594969;-54
2021/09/15 03:11:38;;;;;;;;;45.00;34.33;;;;;14.17;96.32;99781.09;6750549;19;3574127;-53
2021/09/15 03:14:07;;;;;;;;;38.33;33.33;;;;;14.12;96.43;99779.72;6750436;19;3608607;-55
2021/09/15 03:16:35;;;;;;;;;33.67;31.33;;;;;13.99;97.61;99782.44;6748505;19;3592908;-54
2021/09/15 03:19:04;;;;;;;;;36.33;32.67;;;;;13.97;97.67;99779.84;6746524;19;3599113;-52
2021/09/15 03:21:32;;;;;;;;;39.00;34.00;;;;;13.72;98.89;99780.81;6751991;19;3578273;-53
2021/09/15 03:24:01;;;;;;;;;43.00;37.00;;;;;13.68;99.36;99776.59;6742398;19;3599098;-54
2021/09/15 03:26:30;;;;;;;;;38.00;34.00;;;;;13.64;99.49;99776.94;6778621;19;2840941;-54
2021/09/15 03:28:58;;;;;;;;;35.33;32.00;;;;;13.78;99.38;99774.97;6748991;19;3580426;-55
2021/09/15 03:31:28;;;;;;;;;39.33;33.00;;;;;14.01;97.32;99772.41;6742156;19;2865834;-55
2021/09/15 03:33:56;;;;;;;;;35.67;33.00;;;;;14.04;97.37;99780.28;6783476;19;3594933;-53
2021/09/15 03:36:24;;;;;;;;;45.67;34.33;;;;;14.05;96.46;99776.59;6748935;19;3605339;-54
2021/09/15 03:38:53;;;;;;;;;35.00;32.00;;;;;13.87;97.63;99772.56;6749477;19;3599102;-52
2021/09/15 03:41:21;;;;;;;;;35.00;32.00;;;;;14.13;96.39;99784.97;6744518;19;2848154;-52
2021/09/15 03:43:51;;;;;;;;;36.00;31.67;;;;;13.84;97.07;99785.28;6750855;19;3589763;-53
2021/09/15 03:46:20;;;;;;;;;36.67;33.00;;;;;13.70;98.01;99776.50;6740759;19;2837702;-54
2021/09/15 03:48:48;;;;;;;;;34.00;31.33;;;;;13.79;98.17;99778.50;6782348;19;3576214;-53
2021/09/15 03:51:18;;;;;;;;;39.67;32.33;;;;;13.49;99.18;99774.38;6740678;19;2848194;-53
2021/09/15 03:53:46;;;;;;;;;40.67;33.33;;;;;13.16;100.00;99775.81;6781047;19;3606389;-54
2021/09/15 03:56:15;;;;;;;;;31.33;30.00;;;;;13.77;98.62;99775.94;6748193;19;3583478;-55
2021/09/15 03:58:43;;;;;;;;;39.50;34.00;;;;;13.19;99.36;99774.69;6739104;19;2841234;-53
2021/09/15 04:01:14;;;;;;;;;42.00;34.33;;;;;13.52;98.85;99773.31;6748441;19;3625142;-53
2021/09/15 04:03:44;;;;;;;;;38.67;33.33;;;;;13.69;97.80;99774.75;6744256;19;3613688;-55
2021/09/15 04:06:12;;;;;;;;;39.67;34.00;;;;;13.58;98.02;99775.53;6782180;19;3606393;-52
2021/09/15 04:08:40;;;;;;;;;39.67;34.00;;;;;13.64;98.41;99783.22;6746116;19;3578364;-53
2021/09/15 04:11:09;;;;;;;;;43.50;37.00;;;;;13.38;98.80;99774.31;6740028;19;2839829;-55
2021/09/15 04:13:37;;;;;;;;;37.33;33.00;;;;;13.45;98.95;99780.09;6748908;19;3599130;-55
2021/09/15 04:16:07;;;;;;;;;40.33;34.00;;;;;13.52;98.25;99781.41;6740648;19;2844973;-53
2021/09/15 04:18:36;;;;;;;;;37.33;33.00;;;;;13.45;99.03;99774.72;6772875;19;3600131;-53
2021/09/15 04:21:05;;;;;;;;;38.33;34.00;;;;;13.44;99.05;99770.31;6783302;19;3587656;-55
2021/09/15 04:31:47;;;;;;;;;37.00;35.00;;;;;12.91;100.00;99779.34;6783017;19;2858506;-53
2021/09/15 04:34:15;;;;;;;;;38.00;33.67;;;;;13.43;99.45;99779.34;6753515;19;3597014;-53
2021/09/15 04:36:44;;;;;;;;;36.33;31.00;;;;;13.11;99.34;99785.16;6746798;19;2860646;-54
2021/09/15 04:39:14;;;;;;;;;38.00;35.33;;;;;13.13;100.00;99785.94;6782646;19;3603264;-53
2021/09/15 04:41:42;;;;;;;;;38.33;33.00;;;;;13.00;100.00;99782.38;6786487;19;3586590;-53
2021/09/15 04:44:11;;;;;;;;;38.50;34.00;;;;;13.32;99.01;99783.69;6752233;19;2835622;-53
2021/09/15 04:46:39;;;;;;;;;35.00;31.67;;;;;13.22;99.25;99787.09;6752932;19;3591842;-53
2021/09/15 04:49:08;;;;;;;;;43.33;35.33;;;;;13.08;99.70;99791.63;6753951;19;3613773;-53
2021/09/15 04:51:36;;;;;;;;;39.00;35.00;;;;;13.12;98.28;99787.75;6749449;19;2854344;-53
2021/09/15 04:54:09;;;;;;;;;42.33;33.33;;;;;13.04;99.96;99787.44;6746983;19;3630378;-52
2021/09/15 04:56:38;;;;;;;;;42.67;35.33;;;;;13.19;99.34;99788.19;6780016;19;3612675;-55
2021/09/15 04:59:06;;;;;;;;;46.33;37.00;;;;;13.28;99.84;99789.41;6785989;19;3604294;-56
2021/09/15 05:01:36;;;;;;;;;39.67;34.00;;;;;13.23;99.76;99789.69;6746808;19;2864802;-55
2021/09/15 05:04:04;;;;;;;;;38.67;33.33;;;;;13.29;99.47;99785.72;6789014;19;3594970;-55
2021/09/15 05:06:33;;;;;;;;;39.67;33.67;;;;;13.48;97.00;99791.56;6750593;19;3608473;-55
2021/09/15 05:09:01;;;;;;;;;39.00;35.00;;;;;13.25;98.61;99787.75;6750791;19;3593955;-55
2021/09/15 05:11:31;;;;;;;;;40.33;33.33;;;;;13.41;98.49;99786.72;6747474;19;3616841;-54
2021/09/15 05:14:00;;;;;;;;;37.00;33.33;;;;;13.59;97.27;99796.19;6780057;19;2849239;-53
2021/09/15 05:16:31;;;;;;;;;40.33;34.67;;;;;14.17;95.76;99793.72;6775450;19;3592194;-55
2021/09/15 05:18:59;;;;;;;;;42.33;34.00;;;;;14.01;96.81;99797.56;6786071;19;3588713;-56
2021/09/15 05:21:28;;;;;;;;;36.00;33.67;;;;;13.94;97.11;99806.22;6753281;19;3598075;-53
2021/09/15 05:23:56;;;;;;;;;37.33;33.33;;;;;14.02;96.98;99791.16;6753559;19;3603253;-53
2021/09/15 05:26:25;;;;;;;;;35.67;32.67;;;;;14.21;96.31;99792.50;6754504;19;3593893;-54
2021/09/15 05:28:53;;;;;;;;;42.00;35.00;;;;;14.46;95.46;99796.94;6745905;19;3598060;-54
2021/09/15 05:31:22;;;;;;;;;31.33;29.33;;;;;14.52;95.64;99796.44;6751696;19;3581422;-55
2021/09/15 05:33:50;;;;;;;;;40.00;33.67;;;;;14.76;94.76;99809.09;6752171;19;3593933;-54
2021/09/15 05:36:18;;;;;;;;;41.67;35.00;;;;;14.98;93.89;99798.34;6751857;19;3587667;-54
2021/09/15 05:38:47;;;;;;;;;38.33;32.67;;;;;15.09;92.69;99809.19;6747790;19;3597022;-54
2021/09/15 05:41:15;;;;;;;;;38.00;33.00;;;;;15.38;91.09;99811.44;6751884;19;3601197;-55
2021/09/15 05:43:44;;;;;;;;;37.33;32.00;;;;;15.44;91.10;99810.94;6753666;19;3605382;-55
2021/09/15 05:46:12;;;;;;;;;36.00;32.33;;;;;15.74;89.36;99806.78;6751711;19;3574181;-55
2021/09/15 05:48:41;;;;;;;;;33.33;30.67;;;;;15.77;88.69;99817.34;6747454;19;3585588;-53
2021/09/15 05:51:09;;;;;;;;;33.33;31.00;;;;;16.05;87.05;99806.97;6750676;19;3589762;-54
2021/09/15 05:53:38;;;;;;;;;32.67;31.67;;;;;16.15;87.19;99813.38;6754981;19;3595968;-54
2021/09/15 05:56:06;;;;;;;;;31.67;30.00;;;;;16.58;84.42;99812.47;6751760;19;3589723;-54
2021/09/15 05:58:34;;;;;;;;;27.67;27.67;;;;;16.82;83.35;99804.97;6749392;19;3575152;-54
2021/09/15 06:01:03;;;;;;;;;36.00;32.00;;;;;16.73;83.98;99815.75;6748138;19;3597026;-55
2021/09/15 06:03:32;;;;;;;;;34.00;31.00;;;;;16.66;84.36;99816.25;6752681;19;3587668;-57
2021/09/15 06:06:00;;;;;;;;;33.33;31.00;;;;;16.66;84.64;99809.97;6754324;19;3580455;-57
2021/09/15 06:08:29;;;;;;;;;31.00;28.67;;;;;16.76;84.50;99807.34;6749834;19;3585587;-56
2021/09/15 06:10:57;;;;;;;;;33.67;31.33;;;;;17.01;83.91;99800.69;6756471;19;3592157;-55
2021/09/15 06:13:26;;;;;;;;;32.67;30.00;;;;;17.80;80.53;99810.97;6756327;19;3600135;-57
2021/09/15 06:15:54;;;;;;;;;30.33;30.00;;;;;18.46;77.99;99799.50;6753675;19;3566827;-57
2021/09/15 06:18:23;;;;;;;;;30.00;28.33;;;;;19.81;72.51;99805.75;6751036;19;3586615;-57
2021/09/15 06:20:51;;;;;;;;;31.00;28.67;;;;;22.43;62.98;99813.25;6753298;19;3587660;-56
2021/09/15 06:23:19;;;;;;;;;25.33;25.33;;;;;22.69;60.78;99824.06;6756785;19;3592924;-57
2021/09/15 06:25:48;;;;;;;;;27.33;27.00;;;;;19.41;70.56;99815.06;6754963;19;3604290;-57
2021/09/15 06:28:16;;;;;;;;;26.33;24.67;;;;;18.48;76.02;99806.53;6751434;19;3584495;-55
2021/09/15 06:30:48;;;;;;;;;29.00;27.00;;;;;18.57;76.85;99800.25;6753307;19;3602215;-57
2021/09/15 06:33:16;;;;;;;;;27.00;27.00;;;;;18.37;77.67;99803.94;6750433;19;3603252;-57
2021/09/15 06:35:45;;;;;;;;;30.67;28.00;;;;;18.49;76.04;99813.69;6752608;19;3608492;-57
2021/09/15 06:38:14;;;;;;;;;28.33;27.33;;;;;18.59;75.75;99822.72;6749908;19;3590782;-56
2021/09/15 06:40:42;;;;;;;;;32.67;30.67;;;;;18.85;75.40;99819.44;6752465;19;3592874;-56
2021/09/15 06:43:11;;;;;;;;;34.67;31.00;;;;;18.91;75.42;99823.47;6752709;19;3610579;-56
2021/09/15 06:45:39;;;;;;;;;32.00;31.00;;;;;19.42;73.86;99823.06;6750505;19;3598079;-57
2021/09/15 06:48:08;;;;;;;;;33.33;31.00;;;;;19.30;74.02;99807.94;6753095;19;3581384;-56
2021/09/15 06:50:36;;;;;;;;;31.33;29.33;;;;;19.44;73.38;99809.31;6752914;19;3586586;-57
2021/09/15 06:53:05;;;;;;;;;32.33;27.00;;;;;19.69;72.29;99802.34;6746233;19;2855373;-58
2021/09/15 06:55:34;;;;;;;;;29.67;28.67;;;;;19.59;72.25;99805.09;6785291;19;3580337;-56
2021/09/15 06:58:02;;;;;;;;;32.67;28.67;;;;;20.02;72.01;99803.63;6750611;19;3577274;-57
2021/09/15 07:00:31;;;;;;;;;31.33;29.67;;;;;20.50;70.84;99809.78;6752736;19;3584533;-57
2021/09/15 07:02:59;;;;;;;;;31.00;29.67;;;;;20.33;69.58;99816.94;6751947;19;3578293;-57
2021/09/15 07:05:30;;;;;;;;;25.67;24.67;;;;;20.17;71.33;99810.28;6744826;19;3600174;-57
2021/09/15 07:07:58;;;;;;;;;35.33;30.00;;;;;19.67;72.79;99798.94;6786451;19;3582420;-57
2021/09/15 07:10:27;;;;;;;;;27.33;27.33;;;;;19.99;70.97;99806.66;6751914;19;3582423;-57
2021/09/15 07:12:55;;;;;;;;;32.67;30.33;;;;;20.63;69.36;99802.09;6753895;19;3597018;-57
2021/09/15 07:15:25;;;;;;;;;28.67;28.33;;;;;23.71;59.64;99817.16;6750910;19;3598087;-57
2021/09/15 07:17:54;;;;;;;;;27.33;26.67;;;;;25.15;53.47;99829.56;6750369;19;3602251;-54
2021/09/15 07:20:22;;;;;;;;;30.67;26.67;;;;;21.74;64.79;99824.25;6751054;19;3602299;-56
2021/09/15 07:22:51;;;;;;;;;17.00;17.00;;;;;21.41;65.55;99825.94;6751202;19;3556426;-57
2021/09/15 07:25:19;;;;;;;;;28.33;27.00;;;;;21.59;66.08;99826.75;6786216;19;3599117;-57
2021/09/15 07:27:48;;;;;;;;;27.67;27.67;;;;;21.45;66.50;99819.97;6745431;19;3588697;-57
2021/09/15 07:30:17;;;;;;;;;31.00;28.67;;;;;21.68;65.87;99820.28;6784289;19;3583465;-57
2021/09/15 07:32:45;;;;;;;;;21.00;19.67;;;;;21.38;65.53;99827.13;6751615;19;3571009;-57
2021/09/15 07:35:14;;;;;;;;;26.00;23.33;;;;;21.74;65.65;99832.44;6750057;19;3582472;-56
2021/09/15 07:37:42;;;;;;;;;28.67;28.00;;;;;21.59;66.10;99823.13;6749994;19;3596004;-57
2021/09/15 07:40:12;;;;;;;;;29.25;25.25;;;;;21.43;66.99;99832.09;6750836;19;3599162;-57
2021/09/15 07:42:41;;;;;;;;;23.33;22.33;;;;;21.69;66.37;99830.19;6783655;19;3576270;-57
2021/09/15 07:45:12;;;;;;;;;29.00;27.00;;;;;21.68;66.35;99830.38;6755474;19;3592880;-57
2021/09/15 07:47:42;;;;;;;;;25.67;24.00;;;;;22.70;63.21;99843.06;6752789;19;3591848;-57
2021/09/15 07:50:12;;;;;;;;;27.67;23.00;;;;;22.26;64.02;99831.50;6749393;19;3571013;-57
2021/09/15 07:52:41;;;;;;;;;22.67;22.67;;;;;22.06;65.24;99834.47;6751188;19;3578289;-57
2021/09/15 07:55:10;;;;;;;;;25.00;24.67;;;;;22.23;64.01;99834.56;6752488;19;3585596;-57
2021/09/15 07:57:43;;;;;;;;;23.67;22.67;;;;;22.10;63.75;99835.00;6752149;19;3578274;-57
2021/09/15 08:00:13;;;;;;;;;31.50;24.00;;;;;22.77;62.89;99826.81;6758308;19;3645999;-57
2021/09/15 08:02:41;;;;;;;;;22.00;22.00;;;;;23.17;62.17;99819.63;6791358;19;3585588;-57
2021/09/15 08:05:10;;;;;;;;;22.67;21.00;;;;;23.08;62.15;99816.06;6758977;19;3577243;-57
2021/09/15 08:07:39;;;;;;;;;28.00;24.00;;;;;23.57;59.92;99828.84;6756797;19;3608460;-57
2021/09/15 08:10:09;;;;;;;;;25.67;21.67;;;;;22.96;61.06;99831.09;6789372;19;3574111;-57
2021/09/15 08:12:38;;;;;;;;;21.33;21.33;;;;;22.99;61.86;99820.69;6753651;19;3567840;-58
2021/09/15 08:15:07;;;;;;;;;24.67;21.67;;;;;23.59;60.27;99829.50;6790338;19;3585545;-57
2021/09/15 08:17:38;;;;;;;;;21.00;21.00;;;;;23.75;59.79;99832.25;6755855;19;3580340;-58
2021/09/15 08:20:07;;;;;;;;;26.33;25.33;;;;;23.38;60.95;99836.41;6756529;19;3595965;-58
2021/09/15 08:22:39;;;;;;;;;27.00;23.67;;;;;23.05;62.33;99837.47;6756273;19;3591795;-58
2021/09/15 08:25:08;;;;;;;;;22.00;20.00;;;;;22.76;62.60;99831.44;6757440;19;3573065;-57
2021/09/15 08:27:37;;;;;;;;;25.00;23.33;;;;;22.58;63.70;99839.78;6755927;19;3592158;-57
2021/09/15 08:30:06;;;;;;;;;26.33;26.00;;;;;22.50;64.44;99842.50;6756742;19;3608468;-57
2021/09/15 08:32:36;;;;;;;;;30.25;24.25;;;;;22.70;63.55;99836.75;6756414;19;4357408;-57
2021/09/15 08:35:05;;;;;;;;;26.33;24.67;;;;;22.67;63.26;99831.56;6789234;19;3600167;-57
2021/09/15 08:37:36;;;;;;;;;18.00;17.33;;;;;22.53;64.10;99830.38;6755830;19;3552244;-57
2021/09/15 08:40:09;;;;;;;;;24.75;24.50;;;;;23.76;61.52;99831.22;6789827;19;3593881;-57
2021/09/15 08:42:38;;;;;;;;;25.00;23.67;;;;;23.98;59.52;99836.97;6791866;19;3585583;-58
2021/09/15 08:45:10;;;;;;;;;24.67;23.67;;;;;23.22;61.43;99836.41;6756608;19;3585247;-58
2021/09/15 08:47:47;;;;;;;;;26.00;26.00;;;;;23.08;62.34;99828.91;6754512;19;3590748;-57
2021/09/15 08:50:17;;;;;;;;;24.00;24.00;;;;;23.28;62.40;99843.97;6755601;19;3575140;-58
2021/09/15 08:52:46;;;;;;;;;25.50;23.25;;;;;24.24;59.86;99836.69;6755978;19;3600127;-57
2021/09/15 08:55:15;;;;;;;;;20.67;20.67;;;;;24.22;59.26;99838.75;6788898;19;3560550;-57
2021/09/15 08:57:44;;;;;;;;;21.00;20.00;;;;;25.06;57.85;99841.66;6753230;19;3567864;-58
2021/09/15 09:00:14;;;;;;;;;27.00;22.67;;;;;24.70;58.79;99837.66;6755895;19;3579327;-58
2021/09/15 09:02:50;;;;;;;;;23.33;23.33;;;;;24.13;60.42;99835.19;6756483;19;3585572;-57
2021/09/15 09:05:18;;;;;;;;;23.33;22.67;;;;;24.03;60.13;99823.56;6759547;19;3593898;-57
2021/09/15 09:07:47;;;;;;;;;22.33;22.33;;;;;23.94;60.09;99825.50;6753203;19;3584519;-57
2021/09/15 09:10:16;;;;;;;;;18.00;18.00;;;;;24.35;59.74;99828.03;6755582;19;3566795;-57
2021/09/15 09:12:46;;;;;;;;;21.33;20.33;;;;;24.45;58.92;99827.84;6756042;19;3567877;-57
2021/09/15 09:15:27;;;;;;;;;21.67;20.00;;;;;25.21;57.56;99834.34;6750821;19;2844957;-58
2021/09/15 09:18:00;;;;;;;;;23.00;23.00;;;;;25.36;56.74;99823.41;6788102;19;3577219;-58
2021/09/15 09:20:36;;;;;;;;;24.67;24.67;;;;;25.13;57.07;99818.75;6753442;19;3593881;-58
2021/09/15 09:23:18;;;;;;;;;16.50;14.50;;;;;25.13;56.42;99816.00;6749358;19;2810579;-58
2021/09/15 09:25:59;;;;;;;;;20.50;18.50;;;;;25.87;55.72;99818.03;6757959;19;3457459;-58
2021/09/15 09:28:40;;;;;;;;;20.00;20.00;;;;;25.91;55.63;99816.63;6785918;19;3585957;-58
2021/09/15 09:31:11;;;;;;;;;20.00;20.00;;;;;25.33;56.72;99804.50;6755611;19;3587639;-58
2021/09/15 09:33:40;;;;;;;;;22.33;20.33;;;;;26.14;55.35;99812.88;6754740;19;3573131;-57
2021/09/15 09:36:10;;;;;;;;;15.67;15.33;;;;;25.77;55.02;99812.78;6755266;19;3547014;-58
2021/09/15 09:38:45;;;;;;;;;15.50;15.50;;;;;26.20;54.69;99809.38;6746246;19;2823155;-58
2021/09/15 09:41:19;;;;;;;;;21.67;20.33;;;;;25.99;54.60;99804.66;6755186;19;3575188;-57
2021/09/15 09:43:53;;;;;;;;;22.67;20.00;;;;;26.54;51.15;99814.25;6755068;19;3575136;-58
2021/09/15 09:46:31;;;;;;;;;19.00;17.67;;;;;26.80;51.87;99812.81;6755612;19;3562021;-58
2021/09/15 09:49:04;;;;;;;;;19.67;18.67;;;;;26.37;53.06;99805.34;6751601;19;3579294;-57
2021/09/15 09:51:38;;;;;;;;;19.67;19.67;;;;;26.81;52.67;99804.34;6751935;19;3566958;-58
2021/09/15 09:54:21;;;;;;;;;20.00;19.00;;;;;26.89;50.99;99801.47;6755481;19;3573067;-58
2021/09/15 09:56:53;;;;;;;;;15.67;14.00;;;;;26.09;51.14;99796.94;6753753;19;2489755;-58
2021/09/15 09:59:25;;;;;;;;;23.33;21.67;;;;;27.00;50.16;99793.72;6786479;19;3576210;-58
2021/09/15 10:02:02;;;;;;;;;21.00;17.00;;;;;26.61;50.07;99793.13;6748401;19;2834537;-58
2021/09/15 10:04:32;;;;;;;;;18.33;18.33;;;;;27.20;49.21;99792.03;6755751;19;3569960;-58
2021/09/15 10:07:02;;;;;;;;;21.33;19.00;;;;;27.41;48.99;99782.84;6748300;19;3579366;-58
2021/09/15 10:09:32;;;;;;;;;21.67;19.33;;;;;27.25;49.01;99786.75;6787309;19;3579338;-58
2021/09/15 10:12:01;;;;;;;;;20.33;19.00;;;;;27.42;48.78;99783.69;6747859;19;2839781;-58
2021/09/15 10:14:31;;;;;;;;;23.00;21.00;;;;;27.72;47.57;99782.38;6787393;19;3580368;-58
2021/09/15 10:17:08;;;;;;;;;19.00;19.00;;;;;28.05;47.92;99773.47;6757448;19;3567841;-58
2021/09/15 10:19:41;;;;;;;;;21.67;18.67;;;;;27.45;48.57;99775.84;6751647;19;3559523;-57
2021/09/15 10:22:10;;;;;;;;;23.67;21.67;;;;;26.56;49.97;99767.22;6754688;19;3578265;-58
2021/09/15 10:24:48;;;;;;;;;19.33;18.67;;;;;26.81;50.36;99768.53;6748004;19;2831420;-56
2021/09/15 10:27:19;;;;;;;;;21.67;19.67;;;;;27.87;48.52;99775.91;6786313;19;3576170;-58
2021/09/15 10:30:11;;;;;;;;;25.00;24.00;;;;;28.06;48.57;99772.38;6747980;19;3583482;-57
2021/09/15 10:32:47;;;;;;;;;21.67;20.67;;;;;28.46;46.95;99772.53;6786220;19;3580371;-58
2021/09/15 10:35:43;;;;;;;;;21.00;18.67;;;;;28.83;46.49;99764.75;6751931;19;3577255;-59
2021/09/15 10:38:11;;;;;;;;;19.00;18.67;;;;;28.29;45.83;99773.97;6752910;19;3556497;-59
2021/09/15 10:40:42;;;;;;;;;21.33;17.33;;;;;28.20;46.16;99759.47;6751561;19;3554319;-59
2021/09/15 10:43:43;;;;;;;;;19.00;19.00;;;;;29.04;45.40;99763.69;6751447;19;3565830;-59
2021/09/15 10:46:21;;;;;;;;;20.67;19.33;;;;;28.89;44.07;99755.63;6747712;19;2841872;-59
2021/09/15 10:49:22;;;;;;;;;19.67;19.67;;;;;28.54;45.80;99747.50;6784271;19;3567845;-59
2021/09/15 10:52:09;;;;;;;;;18.33;15.67;;;;;28.75;44.32;99748.38;6749447;19;2481450;-59
2021/09/15 10:54:59;;;;;;;;;17.00;17.00;;;;;29.12;43.25;99741.38;6780248;19;2831412;-59
2021/09/15 10:57:27;;;;;;;;;14.00;13.00;;;;;29.36;41.48;99747.31;6779750;19;3521060;-60
2021/09/15 11:00:15;;;;;;;;;14.33;14.33;;;;;29.23;41.47;99739.91;6750049;19;3534553;-59
2021/09/15 11:02:50;;;;;;;;;10.67;10.00;;;;;29.19;42.18;99731.16;6780302;19;3505410;-59
2021/09/15 11:05:27;;;;;;;;;11.33;11.33;;;;;29.42;41.18;99735.41;6752954;19;2481426;-60
2021/09/15 11:07:59;;;;;;;;;18.67;14.00;;;;;29.11;42.09;99723.09;6783970;19;2481482;-59
2021/09/15 11:10:36;;;;;;;;;16.67;12.67;;;;;29.40;41.32;99727.28;6783251;19;2481426;-59
2021/09/15 11:13:06;;;;;;;;;19.33;14.33;;;;;28.82;42.32;99724.34;6788329;19;2814782;-58
2021/09/15 11:15:41;;;;;;;;;12.00;12.00;;;;;28.85;41.24;99729.44;6779713;19;3509553;-60
2021/09/15 11:18:27;;;;;;;;;10.00;5.00;;;;;28.64;43.29;99731.34;6744092;19;2750169;-59
2021/09/15 11:21:10;;;;;;;;;16.67;15.00;;;;;29.09;42.26;99720.53;6785623;19;3534540;-59
2021/09/15 11:23:38;;;;;;;;;14.33;14.33;;;;;29.27;41.81;99717.09;6785779;19;2481561;-59
2021/09/15 11:26:07;;;;;;;;;16.00;14.67;;;;;28.98;42.50;99712.00;6787118;19;3538683;-59